Thousand Palms, CA (92276)

2:44 PM PDT on September 17, 2014 (GMT -0700)
DesertWeather com | Change Station
CLOSE
Current Station
Personal Weather Station
Location: Thousand Palms, CA
Elevation: 275 ft
Nearby Weather Stations

Elev 275 ft 33.82 °N, 116.40 °W | Updated 3 minutes ago

Partly Cloudy
Partly Cloudy
100.0 °F
Feels Like 102 °F
N
2.0
Wind Variable Wind from SE
Gusts 0.0 mph

Today
High -- | Low -- °F
--% Chance of Precip.
Yesterday
High -- | Low -- °F
Precip. -- in
6:30 AM 6:49 PM
Waning Crescent, 33% visible
Pressure 29.70 in
Visibility 10.0 miles
Clouds Clear
Heat Index 102 °F
Dew Point 63 °F
Humidity 30%
Rainfall 0.00 in
Snow Depth 0 in , 0 in , 0 in
UV 8 out of 12
Pollen 5.10 out of 12
Ozone Good
Flu Activity Not available.
METAR KPSP 172053Z 09006KT 10SM CLR 38/17 A2972 RMK AO2 SLP058 T03830167 58025

More Conditions Fewer Conditions

Pressure 29.70 in
Visibility 10.0 miles
Clouds Clear
Heat Index 102 °F
Dew Point 63 °F
Humidity 30%
Rainfall 0.00 in
Snow Depth 0 in , 0 in , 0 in
UV 8 out of 12
Pollen 5.10 out of 12
Ozone Good
Flu Activity Not available.
METAR KPSP 172053Z 09006KT 10SM CLR 38/17 A2972 RMK AO2 SLP058 T03830167 58025

More Conditions Fewer Conditions

10-Day Weather Forecast

Almanac

Astronomy

Sep. 17, 2014 Rise Set
Actual Time 6:30 AM PDT 6:49 PM PDT
Civil Twilight 6:05 AM PDT 7:14 PM PDT
Nautical Twilight 5:36 AM PDT 7:43 PM PDT
Astronomical Twilight 5:06 AM PDT 8:12 PM PDT
Moon 12:45 AM PDT 2:50 PM PDT
Length of Visible Light 13h 08m
Length of Day
12h 18m
Tomorrow will be 2m 5s shorter.
Waning Crescent, 33% of the Moon is Illuminated
Today
Waning Crescent
Sep 24
New
Oct 1
First Quarter
Oct 8
Full
Oct 15
Last Quarter

Today's Extremes

State Highs State Lows

Community

WunderPhotos

Upload Photos

1,754,171 photos uploaded!

Nearby

Air Quality

  Air Quality AQ Index Pollutant
Yesterday Good
PM10
Yesterday Good
OZONE
Current Good
OZONE
Thursday Moderate
OZONE
Thursday Good
PM10
Thursday Good
CO
Thursday Good
NO2

Snow Depth

Station Depth Elevation
Leavitt Meadows 0 in 7200 ft
Rubicon #2 0 in 7500 ft
Tahoe City Cross 0 in 6750 ft
Echo Peak 0 in 7800 ft
Adin Mountain 1 in 6200 ft

Earthquake Activity

City Distance Mag. Time & Date
La Quinta, California 20 miles 2.7 8:59 PM PDT
2014-09-15
Minimum magnitude displayed is 2.5.

Coastal Water Temperatures

Place Temperature
No Stations Reporting

Nearby Weather Stations